createdAt,value
2023-03-21T00:00:16.368Z,11.50
2023-03-21T00:03:05.090Z,11.50
2023-03-21T00:06:32.948Z,11.53
2023-03-21T00:10:08.873Z,11.46
2023-03-21T00:13:29.018Z,11.47
2023-03-21T00:16:56.754Z,11.40
2023-03-21T00:20:04.489Z,11.42
2023-03-21T00:23:33.530Z,11.36
2023-03-21T00:27:21.928Z,11.33
2023-03-21T00:30:29.313Z,11.28
2023-03-21T00:33:57.235Z,11.23
2023-03-21T00:37:25.301Z,11.18
2023-03-21T00:40:53.348Z,11.13
2023-03-21T00:44:21.253Z,11.14
2023-03-21T00:47:49.404Z,11.14
2023-03-21T00:51:17.412Z,11.12
2023-03-21T00:54:45.518Z,11.10
2023-03-21T00:58:13.565Z,11.07
2023-03-21T01:01:42.555Z,11.06
2023-03-21T01:05:09.568Z,11.09
2023-03-21T01:08:26.518Z,11.09
2023-03-21T01:11:46.561Z,11.11
2023-03-21T01:15:14.556Z,11.12
2023-03-21T01:18:42.521Z,11.14
2023-03-21T01:22:10.596Z,11.17
2023-03-21T01:25:22.736Z,11.26
2023-03-21T01:28:47.658Z,11.34
2023-03-21T01:32:15.655Z,11.44
2023-03-21T01:35:25.039Z,11.50
2023-03-21T01:38:52.595Z,11.51
2023-03-21T01:42:20.520Z,11.51
2023-03-21T01:45:48.403Z,11.51
2023-03-21T01:49:19.769Z,11.49
2023-03-21T01:52:47.548Z,11.40
2023-03-21T01:56:15.307Z,11.25
2023-03-21T01:59:43.216Z,11.23
2023-03-21T02:03:35.705Z,11.22
2023-03-21T02:06:57.211Z,11.16
2023-03-21T02:10:28.104Z,11.14
2023-03-21T02:14:05.918Z,11.08
2023-03-21T02:17:23.861Z,10.88
2023-03-21T02:20:51.705Z,10.85
2023-03-21T02:24:20.081Z,10.77
2023-03-21T02:27:47.965Z,10.80
2023-03-21T02:30:58.452Z,10.80
2023-03-21T02:34:06.599Z,10.84
2023-03-21T02:37:17.143Z,10.90
2023-03-21T02:40:43.594Z,10.95
2023-03-21T02:44:11.415Z,11.02
2023-03-21T02:47:39.485Z,11.09
2023-03-21T02:51:07.176Z,11.04
2023-03-21T02:54:47.321Z,11.04
2023-03-21T02:58:12.351Z,11.09
2023-03-21T03:01:30.920Z,11.10
2023-03-21T03:04:58.930Z,11.03
2023-03-21T03:08:38.545Z,10.98
2023-03-21T03:11:56.009Z,10.85
2023-03-21T03:15:24.215Z,10.76
2023-03-21T03:18:52.124Z,10.74
2023-03-21T03:21:42.158Z,10.69
2023-03-21T03:24:51.127Z,10.67
2023-03-21T03:28:19.001Z,10.57
2023-03-21T03:31:46.798Z,10.53
2023-03-21T03:34:56.693Z,10.43
2023-03-21T03:38:07.749Z,10.39
2023-03-21T03:42:00.798Z,10.38
2023-03-21T03:45:03.690Z,10.41
2023-03-21T03:48:12.518Z,10.43
2023-03-21T03:51:40.332Z,10.41
2023-03-21T03:55:10.935Z,10.39
2023-03-21T03:58:45.207Z,10.49
2023-03-21T04:02:06.862Z,10.53
2023-03-21T04:05:15.931Z,10.55
2023-03-21T04:08:43.883Z,10.60
2023-03-21T04:12:11.843Z,10.67
2023-03-21T04:15:39.710Z,10.76
2023-03-21T04:19:07.650Z,10.76
2023-03-21T04:22:16.803Z,10.75
2023-03-21T04:25:33.286Z,10.76
2023-03-21T04:28:52.791Z,10.71
2023-03-21T04:31:45.528Z,10.67
2023-03-21T04:35:13.417Z,10.67
2023-03-21T04:38:41.476Z,10.56
2023-03-21T04:42:09.494Z,10.50
2023-03-21T04:45:37.396Z,10.42
2023-03-21T04:48:45.754Z,10.38
2023-03-21T04:52:14.438Z,10.31
2023-03-21T04:55:42.435Z,10.16
2023-03-21T04:58:51.703Z,10.17
2023-03-21T05:02:19.452Z,10.19
2023-03-21T05:05:47.428Z,10.09
2023-03-21T05:08:59.103Z,10.14
2023-03-21T05:12:08.027Z,10.16
2023-03-21T05:15:36.043Z,10.25
2023-03-21T05:19:03.775Z,10.30
2023-03-21T05:22:31.823Z,10.41
2023-03-21T05:25:41.494Z,10.48
2023-03-21T05:29:12.142Z,10.53
2023-03-21T05:32:40.057Z,10.53
2023-03-21T05:36:07.977Z,10.57
2023-03-21T05:39:35.914Z,10.54
2023-03-21T05:42:44.806Z,10.52
2023-03-21T05:46:12.526Z,10.58
2023-03-21T05:49:20.972Z,10.57
2023-03-21T05:52:30.025Z,10.58
2023-03-21T05:55:57.693Z,10.64
2023-03-21T05:59:28.067Z,10.66
2023-03-21T06:02:44.276Z,10.64
2023-03-21T06:06:18.226Z,10.64
2023-03-21T06:09:46.080Z,10.69
2023-03-21T06:13:13.809Z,10.75
2023-03-21T06:16:41.872Z,10.77
2023-03-21T06:20:09.657Z,10.86
2023-03-21T06:23:37.574Z,10.99
2023-03-21T06:27:05.454Z,11.04
2023-03-21T06:30:36.220Z,11.10
2023-03-21T06:34:04.214Z,11.07
2023-03-21T06:37:32.228Z,11.05
2023-03-21T06:41:00.257Z,11.28
2023-03-21T06:44:28.130Z,11.41
2023-03-21T06:47:56.192Z,11.50
2023-03-21T06:51:24.096Z,11.60
2023-03-21T06:54:52.101Z,11.64
2023-03-21T06:58:00.999Z,11.72
2023-03-21T07:01:28.916Z,11.80
2023-03-21T07:04:57.077Z,11.85
2023-03-21T07:08:06.096Z,11.89
2023-03-21T07:11:15.175Z,11.96
2023-03-21T07:14:23.952Z,12.05
2023-03-21T07:17:51.797Z,12.14
2023-03-21T07:20:20.111Z,12.14
2023-03-21T07:23:29.101Z,12.20
2023-03-21T07:26:37.340Z,12.25
2023-03-21T07:29:45.685Z,12.26
2023-03-21T07:32:57.488Z,12.18
2023-03-21T07:36:25.501Z,12.12
2023-03-21T07:39:41.927Z,12.11
2023-03-21T07:42:35.026Z,12.01
2023-03-21T07:46:02.987Z,11.85
2023-03-21T07:48:57.033Z,11.80
2023-03-21T07:52:06.060Z,11.76
2023-03-21T07:55:33.907Z,11.71
2023-03-21T07:59:02.139Z,11.78
2023-03-21T08:02:11.347Z,11.92
2023-03-21T08:05:39.337Z,12.23
2023-03-21T08:08:27.707Z,12.49
2023-03-21T08:11:16.376Z,12.75
2023-03-21T08:14:06.393Z,12.97
2023-03-21T08:17:34.094Z,13.13
2023-03-21T08:20:43.886Z,13.34
2023-03-21T08:23:55.723Z,13.55
2023-03-21T08:27:05.458Z,13.64
2023-03-21T08:30:33.929Z,13.79
2023-03-21T08:34:01.904Z,13.98
2023-03-21T08:37:29.775Z,14.16
2023-03-21T08:40:38.620Z,14.40
2023-03-21T08:43:49.006Z,14.38
2023-03-21T08:47:16.809Z,14.57
2023-03-21T08:50:44.882Z,14.84
2023-03-21T08:53:21.442Z,15.03
2023-03-21T08:56:49.364Z,15.11
2023-03-21T08:59:58.160Z,15.20
2023-03-21T09:03:06.977Z,15.18
2023-03-21T09:06:34.821Z,15.04
2023-03-21T09:10:19.887Z,15.37
2023-03-21T09:13:31.265Z,15.61
2023-03-21T09:16:39.862Z,15.61
2023-03-21T09:19:27.895Z,15.75
2023-03-21T09:21:58.751Z,15.71
2023-03-21T09:25:26.634Z,15.77
2023-03-21T09:28:54.706Z,15.69
2023-03-21T09:32:23.359Z,15.80
2023-03-21T09:34:53.288Z,15.76
2023-03-21T09:38:21.206Z,15.65
2023-03-21T09:41:48.917Z,15.65
2023-03-21T09:44:57.482Z,15.71
2023-03-21T09:48:08.679Z,15.84
2023-03-21T09:50:57.446Z,15.84
2023-03-21T09:54:25.343Z,16.12
2023-03-21T09:57:53.096Z,16.22
2023-03-21T10:01:22.546Z,16.35
2023-03-21T10:04:50.539Z,16.52
2023-03-21T10:07:59.064Z,16.67
2023-03-21T10:11:26.893Z,16.92
2023-03-21T10:14:35.328Z,17.05
2023-03-21T10:18:03.317Z,17.15
2023-03-21T10:21:58.709Z,17.21
2023-03-21T10:24:25.336Z,17.37
2023-03-21T10:27:41.048Z,17.50
2023-03-21T10:30:49.874Z,17.53
2023-03-21T10:33:26.945Z,17.70
2023-03-21T10:36:54.661Z,17.83
2023-03-21T10:40:03.951Z,17.94
2023-03-21T10:43:31.612Z,17.94
2023-03-21T10:46:59.668Z,18.01
2023-03-21T10:50:28.183Z,18.00
2023-03-21T10:53:36.496Z,18.08
2023-03-21T10:57:04.365Z,18.43
2023-03-21T11:00:32.322Z,18.59
2023-03-21T11:04:00.339Z,18.70
2023-03-21T11:07:08.559Z,18.78
2023-03-21T11:10:37.068Z,18.75
2023-03-21T11:13:46.982Z,18.88
2023-03-21T11:16:57.310Z,18.60
2023-03-21T11:20:25.187Z,18.75
2023-03-21T11:23:53.073Z,18.88
2023-03-21T11:27:01.747Z,18.96
2023-03-21T11:30:10.793Z,18.88
2023-03-21T11:33:19.536Z,19.11
2023-03-21T11:36:12.685Z,19.15
2023-03-21T11:39:40.508Z,19.27
2023-03-21T11:43:08.601Z,19.62
2023-03-21T11:46:32.518Z,19.75
2023-03-21T11:49:41.587Z,19.96
2023-03-21T11:52:32.441Z,20.12
2023-03-21T11:55:03.105Z,20.13
2023-03-21T11:58:27.326Z,20.04
2023-03-21T12:01:55.230Z,20.13
2023-03-21T12:05:23.214Z,20.23
2023-03-21T12:08:50.926Z,20.18
2023-03-21T12:12:14.937Z,20.13
2023-03-21T12:15:23.828Z,20.12
2023-03-21T12:18:28.470Z,20.14
2023-03-21T12:21:53.935Z,20.32
2023-03-21T12:25:20.056Z,20.22
2023-03-21T12:28:33.419Z,20.28
2023-03-21T12:32:00.114Z,20.53
2023-03-21T12:35:28.058Z,20.56
2023-03-21T12:38:51.589Z,20.58
2023-03-21T12:42:19.352Z,20.78
2023-03-21T12:45:34.252Z,20.77
2023-03-21T12:48:56.361Z,20.91
2023-03-21T12:52:04.367Z,21.06
2023-03-21T12:55:13.091Z,21.32
2023-03-21T12:58:09.805Z,21.72
2023-03-21T13:00:58.319Z,22.32
2023-03-21T13:04:03.668Z,22.69
2023-03-21T13:07:00.790Z,22.84
2023-03-21T13:10:08.952Z,22.89
2023-03-21T13:13:13.946Z,23.20
2023-03-21T13:16:23.144Z,23.23
2023-03-21T13:19:12.108Z,23.36
2023-03-21T13:22:40.059Z,23.66
2023-03-21T13:25:28.260Z,24.01
2023-03-21T13:28:36.577Z,23.97
2023-03-21T13:32:04.648Z,23.66
2023-03-21T13:35:10.328Z,23.92
2023-03-21T13:38:22.598Z,23.48
2023-03-21T13:41:50.390Z,23.66
2023-03-21T13:44:50.720Z,24.14
2023-03-21T13:48:18.736Z,24.06
2023-03-21T13:51:06.677Z,24.49
2023-03-21T13:54:04.883Z,24.12
2023-03-21T13:56:54.788Z,23.94
2023-03-21T14:00:10.543Z,23.99
2023-03-21T14:03:38.201Z,24.23
2023-03-21T14:07:06.061Z,24.36
2023-03-21T14:10:14.861Z,24.76
2023-03-21T14:13:26.864Z,24.55
2023-03-21T14:16:36.457Z,23.69
2023-03-21T14:20:04.187Z,24.04
2023-03-21T14:22:53.364Z,24.25
2023-03-21T14:26:22.157Z,24.76
2023-03-21T14:29:31.856Z,24.72
2023-03-21T14:32:23.467Z,24.89
2023-03-21T14:35:51.491Z,25.46
2023-03-21T14:39:09.512Z,26.15
2023-03-21T14:42:21.271Z,26.22
2023-03-21T14:45:48.999Z,26.17
2023-03-21T14:48:58.047Z,25.68
2023-03-21T14:52:25.773Z,24.96
2023-03-21T14:55:35.872Z,24.49
2023-03-21T14:59:03.630Z,24.88
2023-03-21T15:01:53.740Z,25.10
2023-03-21T15:05:02.729Z,25.41
2023-03-21T15:07:52.881Z,25.54
2023-03-21T15:11:09.656Z,26.16
2023-03-21T15:14:12.364Z,26.29
2023-03-21T15:17:40.340Z,26.17
2023-03-21T15:21:08.195Z,25.76
2023-03-21T15:24:17.058Z,25.83
2023-03-21T15:27:44.826Z,25.71
2023-03-21T15:31:12.953Z,26.44
2023-03-21T15:33:43.777Z,26.38
2023-03-21T15:37:11.413Z,26.89
2023-03-21T15:40:20.314Z,27.00
2023-03-21T15:43:12.736Z,26.95
2023-03-21T15:46:40.804Z,26.48
2023-03-21T15:49:50.961Z,26.24
2023-03-21T15:52:20.540Z,26.24
2023-03-21T15:55:30.588Z,26.36
2023-03-21T15:58:19.811Z,25.99
2023-03-21T16:01:08.015Z,25.00
2023-03-21T16:04:35.863Z,23.96
2023-03-21T16:07:25.723Z,23.11
2023-03-21T16:10:53.721Z,21.78
2023-03-21T16:14:21.845Z,21.09
2023-03-21T16:16:55.125Z,20.76
2023-03-21T16:20:06.157Z,19.97
2023-03-21T16:22:38.953Z,19.33
2023-03-21T16:25:47.668Z,18.82
2023-03-21T16:28:33.238Z,18.58
2023-03-21T16:31:42.835Z,18.19
2023-03-21T16:34:36.409Z,17.75
2023-03-21T16:38:04.413Z,17.47
2023-03-21T16:41:13.406Z,17.32
2023-03-21T16:44:36.878Z,17.14
2023-03-21T16:47:30.744Z,16.98
2023-03-21T16:50:54.352Z,16.84
2023-03-21T16:54:19.132Z,16.81
2023-03-21T16:57:46.859Z,16.57
2023-03-21T17:01:14.929Z,16.42
2023-03-21T17:04:39.294Z,16.30
2023-03-21T17:08:07.069Z,16.13
2023-03-21T17:11:34.716Z,15.95
2023-03-21T17:15:02.447Z,15.84
2023-03-21T17:18:25.740Z,15.76
2023-03-21T17:21:53.685Z,15.64
2023-03-21T17:25:01.904Z,15.61
2023-03-21T17:27:53.889Z,15.56
2023-03-21T17:30:59.016Z,15.54
2023-03-21T17:34:07.775Z,15.46
2023-03-21T17:37:17.290Z,15.39
2023-03-21T17:40:45.302Z,15.35
2023-03-21T17:43:49.940Z,15.33
2023-03-21T17:46:43.209Z,15.30
2023-03-21T17:49:36.512Z,15.29
2023-03-21T17:52:46.230Z,15.24
2023-03-21T17:55:51.963Z,15.21
2023-03-21T17:58:57.488Z,15.18
2023-03-21T18:01:46.425Z,15.09
2023-03-21T18:05:14.532Z,15.08
2023-03-21T18:08:12.886Z,15.09
2023-03-21T18:11:20.940Z,15.11
2023-03-21T18:14:44.773Z,15.11
2023-03-21T18:18:08.627Z,15.03
2023-03-21T18:21:36.374Z,14.90
2023-03-21T18:24:52.425Z,14.80
2023-03-21T18:28:11.499Z,14.74
2023-03-21T18:31:30.323Z,14.62
2023-03-21T18:34:32.156Z,14.50
2023-03-21T18:37:35.286Z,14.42
2023-03-21T18:41:00.771Z,14.34
2023-03-21T18:44:13.596Z,14.25
2023-03-21T18:47:33.611Z,14.18
2023-03-21T18:51:01.497Z,14.09
2023-03-21T18:54:06.377Z,14.05
2023-03-21T19:00:11.109Z,13.96
2023-03-21T19:03:34.159Z,13.94
2023-03-21T19:06:09.997Z,13.88
2023-03-21T19:09:29.448Z,13.78
2023-03-21T19:12:33.967Z,13.69
2023-03-21T19:15:39.365Z,13.59
2023-03-21T19:19:02.586Z,13.51
2023-03-21T19:22:30.424Z,13.46
2023-03-21T19:25:33.739Z,13.41
2023-03-21T19:29:04.586Z,13.34
2023-03-21T19:32:28.953Z,13.26
2023-03-21T19:36:13.056Z,13.19
2023-03-21T19:39:25.267Z,13.15
2023-03-21T19:42:53.585Z,13.11
2023-03-21T19:46:03.264Z,13.06
2023-03-21T19:49:19.762Z,13.00
2023-03-21T19:52:47.562Z,12.91
2023-03-21T19:56:22.865Z,12.81
2023-03-21T19:59:24.578Z,12.74
2023-03-21T20:02:37.256Z,12.69
2023-03-21T20:06:04.675Z,12.66
2023-03-21T20:12:20.680Z,12.44
2023-03-21T20:15:54.721Z,12.42
2023-03-21T20:19:17.974Z,12.29
2023-03-21T20:26:14.040Z,12.12
2023-03-21T20:30:08.845Z,11.99
2023-03-21T20:33:10.313Z,11.87
2023-03-21T20:36:40.862Z,11.71
2023-03-21T20:40:06.545Z,11.57
2023-03-21T20:44:24.444Z,11.36
2023-03-21T20:47:02.387Z,11.28
2023-03-21T20:50:11.294Z,11.24
2023-03-21T20:53:39.938Z,11.14
2023-03-21T20:57:07.826Z,11.12
2023-03-21T21:00:35.761Z,11.07
2023-03-21T21:03:29.039Z,11.05
2023-03-21T21:06:56.982Z,11.03
2023-03-21T21:10:25.906Z,11.04
2023-03-21T21:13:34.618Z,11.10
2023-03-21T21:16:59.054Z,11.16
2023-03-21T21:20:08.952Z,11.24
2023-03-21T21:23:36.180Z,11.20
2023-03-21T21:27:03.950Z,11.15
2023-03-21T21:30:14.001Z,11.26
2023-03-21T21:32:42.436Z,11.27
2023-03-21T21:35:32.751Z,11.19
2023-03-21T21:38:44.402Z,11.12
2023-03-21T21:41:32.981Z,11.04
2023-03-21T21:44:25.288Z,10.97
2023-03-21T21:47:53.494Z,10.95
2023-03-21T21:51:02.890Z,10.99
2023-03-21T21:54:11.251Z,11.05
2023-03-21T21:57:19.696Z,11.09
2023-03-21T22:00:47.522Z,11.10
2023-03-21T22:03:34.394Z,11.07
2023-03-21T22:06:23.225Z,10.94
2023-03-21T22:09:51.808Z,10.88
2023-03-21T22:13:20.027Z,10.82
2023-03-21T22:20:17.381Z,10.59
2023-03-21T22:23:45.345Z,10.46
2023-03-21T22:27:13.070Z,10.35
2023-03-21T22:30:41.001Z,10.33
2023-03-21T22:33:18.879Z,10.32
2023-03-21T22:36:27.962Z,10.34
2023-03-21T22:39:55.629Z,10.27
2023-03-21T22:43:04.751Z,10.26
2023-03-21T22:46:14.468Z,10.28
2023-03-21T22:49:42.514Z,10.26
2023-03-21T22:52:50.907Z,10.15
2023-03-21T22:55:19.413Z,10.15
2023-03-21T22:58:47.150Z,10.21
2023-03-21T23:01:55.839Z,10.26
2023-03-21T23:05:23.849Z,10.29
2023-03-21T23:08:21.506Z,10.25
2023-03-21T23:11:49.276Z,10.12
2023-03-21T23:14:57.557Z,10.03
2023-03-21T23:18:09.457Z,10.07
2023-03-21T23:21:18.396Z,10.02
2023-03-21T23:24:46.476Z,9.95
2023-03-21T23:28:14.092Z,10.03
2023-03-21T23:31:22.650Z,10.08
2023-03-21T23:34:50.419Z,10.14
2023-03-21T23:37:59.129Z,10.06
2023-03-21T23:41:27.013Z,9.93
2023-03-21T23:44:35.291Z,9.84
2023-03-21T23:48:03.321Z,9.76
2023-03-21T23:51:31.131Z,9.48
2023-03-21T23:54:59.116Z,9.30
2023-03-21T23:58:26.886Z,9.24
